createdAt,value
2019-05-13T00:01:47.714Z,32.30
2019-05-13T00:04:18.847Z,32.50
2019-05-13T00:06:54.522Z,32.70
2019-05-13T00:09:24.477Z,32.60
2019-05-13T00:11:56.043Z,32.50
2019-05-13T00:14:27.627Z,32.40
2019-05-13T00:16:59.495Z,32.30
2019-05-13T00:19:29.840Z,32.10
2019-05-13T00:22:03.728Z,32.00
2019-05-13T00:24:34.986Z,32.30
2019-05-13T00:27:06.346Z,32.60
2019-05-13T00:29:37.985Z,33.10
2019-05-13T00:32:09.029Z,33.50
2019-05-13T00:34:40.768Z,33.70
2019-05-13T00:37:11.845Z,34.00
2019-05-13T00:39:44.295Z,34.30
2019-05-13T00:42:16.161Z,34.80
2019-05-13T00:44:46.520Z,35.20
2019-05-13T00:47:17.847Z,35.60
2019-05-13T00:49:49.002Z,35.90
2019-05-13T00:52:20.140Z,35.90
2019-05-13T00:54:53.491Z,35.40
2019-05-13T00:57:24.424Z,34.90
2019-05-13T00:59:55.903Z,34.60
2019-05-13T01:02:27.639Z,34.40
2019-05-13T01:04:58.220Z,34.40
2019-05-13T01:07:29.389Z,34.40
2019-05-13T01:10:00.618Z,34.30
2019-05-13T01:12:34.279Z,34.10
2019-05-13T01:15:05.849Z,33.80
2019-05-13T01:17:37.111Z,33.60
2019-05-13T01:20:09.866Z,33.40
2019-05-13T01:22:43.818Z,33.10
2019-05-13T01:25:15.119Z,32.90
2019-05-13T01:27:46.696Z,32.90
2019-05-13T01:30:18.885Z,32.80
2019-05-13T01:32:50.282Z,33.00
2019-05-13T01:35:23.590Z,33.40
2019-05-13T01:37:55.176Z,33.60
2019-05-13T01:40:25.478Z,34.00
2019-05-13T01:42:56.912Z,34.20
2019-05-13T01:49:09.690Z,35.20
2019-05-13T01:51:40.622Z,35.90
2019-05-13T01:54:14.248Z,36.50
2019-05-13T01:56:45.279Z,36.80
2019-05-13T01:59:15.825Z,36.80
2019-05-13T02:01:47.471Z,36.60
2019-05-13T02:04:18.008Z,36.70
2019-05-13T02:06:49.451Z,36.70
2019-05-13T02:09:20.758Z,36.60
2019-05-13T02:11:53.805Z,36.40
2019-05-13T02:14:25.145Z,36.30
2019-05-13T02:16:55.271Z,36.60
2019-05-13T02:19:26.811Z,37.00
2019-05-13T02:21:56.960Z,37.30
2019-05-13T02:24:28.599Z,37.60
2019-05-13T02:27:00.165Z,38.00
2019-05-13T02:29:30.686Z,37.70
2019-05-13T02:32:04.086Z,37.10
2019-05-13T02:34:35.931Z,36.60
2019-05-13T02:37:07.144Z,36.30
2019-05-13T02:39:38.731Z,36.10
2019-05-13T02:42:08.978Z,36.00
2019-05-13T02:44:43.478Z,35.90
2019-05-13T02:47:13.508Z,35.80
2019-05-13T02:49:44.740Z,35.80
2019-05-13T02:52:16.408Z,35.70
2019-05-13T02:54:46.742Z,35.70
2019-05-13T02:57:18.287Z,35.80
2019-05-13T02:59:48.721Z,36.00
2019-05-13T03:02:22.203Z,36.40
2019-05-13T03:04:53.251Z,36.80
2019-05-13T03:07:25.019Z,37.30
2019-05-13T03:09:56.468Z,37.60
2019-05-13T03:12:26.522Z,37.70
2019-05-13T03:14:57.732Z,37.70
2019-05-13T03:17:32.690Z,38.00
2019-05-13T03:20:04.243Z,38.40
2019-05-13T03:22:36.115Z,38.80
2019-05-13T03:25:08.867Z,39.10
2019-05-13T03:27:42.699Z,39.20
2019-05-13T03:30:16.527Z,39.20
2019-05-13T03:32:55.165Z,39.30
2019-05-13T03:35:25.785Z,39.10
2019-05-13T03:37:52.973Z,38.80
2019-05-13T03:40:24.487Z,38.10
2019-05-13T03:42:54.589Z,37.30
2019-05-13T03:45:27.418Z,37.00
2019-05-13T03:48:04.064Z,36.70
2019-05-13T03:50:34.842Z,36.60
2019-05-13T03:53:07.154Z,36.60
2019-05-13T03:55:38.928Z,36.40
2019-05-13T03:58:13.105Z,36.30
2019-05-13T04:00:44.263Z,35.80
2019-05-13T04:03:16.113Z,35.60
2019-05-13T04:05:48.073Z,35.50
2019-05-13T04:08:22.705Z,35.50
2019-05-13T04:10:52.698Z,35.40
2019-05-13T04:13:23.706Z,35.40
2019-05-13T04:15:55.568Z,35.40
2019-05-13T04:18:27.205Z,35.40
2019-05-13T04:21:02.374Z,35.40
2019-05-13T04:23:32.493Z,35.60
2019-05-13T04:26:04.255Z,35.90
2019-05-13T04:28:36.073Z,36.20
2019-05-13T04:31:07.733Z,36.40
2019-05-13T04:33:42.400Z,36.40
2019-05-13T04:36:13.539Z,36.50
2019-05-13T04:38:45.499Z,36.60
2019-05-13T04:41:17.386Z,36.60
2019-05-13T04:43:49.087Z,36.70
2019-05-13T04:46:22.881Z,36.70
2019-05-13T04:48:53.871Z,36.60
2019-05-13T04:51:25.191Z,36.40
2019-05-13T04:53:57.466Z,36.20
2019-05-13T04:56:29.015Z,35.80
2019-05-13T04:59:02.982Z,35.50
2019-05-13T05:01:40.533Z,35.30
2019-05-13T05:04:22.533Z,35.00
2019-05-13T05:06:46.598Z,34.80
2019-05-13T05:09:22.526Z,34.70
2019-05-13T05:11:55.694Z,34.60
2019-05-13T05:14:29.024Z,34.50
2019-05-13T05:17:03.442Z,34.40
2019-05-13T05:19:37.806Z,34.40
2019-05-13T05:22:13.475Z,34.50
2019-05-13T05:25:04.396Z,34.50
2019-05-13T05:27:38.150Z,34.60
2019-05-13T05:30:12.194Z,34.60
2019-05-13T05:32:45.435Z,34.70
2019-05-13T05:35:18.722Z,34.70
2019-05-13T05:37:52.333Z,34.70
2019-05-13T05:40:31.263Z,34.80
2019-05-13T05:43:02.340Z,34.90
2019-05-13T05:45:35.834Z,34.90
2019-05-13T05:48:11.766Z,35.00
2019-05-13T05:50:44.375Z,35.00
2019-05-13T05:53:17.733Z,35.10
2019-05-13T05:55:51.770Z,35.20
2019-05-13T05:58:25.168Z,35.20
2019-05-13T06:00:58.182Z,35.20
2019-05-13T06:03:32.752Z,35.10
2019-05-13T06:06:05.224Z,35.10
2019-05-13T06:08:37.212Z,34.90
2019-05-13T06:11:09.123Z,34.80
2019-05-13T06:13:43.435Z,34.70
2019-05-13T06:16:15.117Z,34.50
2019-05-13T06:18:45.326Z,34.40
2019-05-13T06:21:17.071Z,34.30
2019-05-13T06:23:47.628Z,34.30
2019-05-13T06:26:19.149Z,34.30
2019-05-13T06:28:52.085Z,34.30
2019-05-13T06:31:24.105Z,34.40
2019-05-13T06:33:55.841Z,34.40
2019-05-13T06:36:26.417Z,34.50
2019-05-13T06:38:58.135Z,34.70
2019-05-13T06:41:28.596Z,34.70
2019-05-13T06:44:02.159Z,34.70
2019-05-13T06:46:32.453Z,34.70
2019-05-13T06:49:03.988Z,34.70
2019-05-13T06:51:35.732Z,34.70
2019-05-13T06:54:06.420Z,34.70
2019-05-13T06:56:38.166Z,34.60
2019-05-13T06:59:11.960Z,34.50
2019-05-13T07:01:43.641Z,34.40
2019-05-13T07:04:15.443Z,34.30
2019-05-13T07:06:47.205Z,34.30
2019-05-13T07:09:17.649Z,34.20
2019-05-13T07:11:51.700Z,34.20
2019-05-13T07:14:22.472Z,34.20
2019-05-13T07:16:52.923Z,34.30
2019-05-13T07:19:24.763Z,34.40
2019-05-13T07:21:55.308Z,34.50
2019-05-13T07:24:27.156Z,34.60
2019-05-13T07:26:58.330Z,34.70
2019-05-13T07:29:32.183Z,34.90
2019-05-13T07:32:02.562Z,35.00
2019-05-13T07:34:34.188Z,35.20
2019-05-13T07:37:05.877Z,35.40
2019-05-13T07:39:37.218Z,35.60
2019-05-13T07:42:09.178Z,35.80
2019-05-13T07:44:41.850Z,35.90
2019-05-13T07:47:15.853Z,35.90
2019-05-13T07:49:46.615Z,35.80
2019-05-13T07:52:18.262Z,35.70
2019-05-13T07:54:51.892Z,35.60
2019-05-13T07:57:23.049Z,35.30
2019-05-13T07:59:54.276Z,35.10
2019-05-13T08:02:25.460Z,35.00
2019-05-13T08:04:56.636Z,34.80
2019-05-13T08:07:48.264Z,34.70
2019-05-13T08:10:21.766Z,34.60
2019-05-13T08:12:54.368Z,34.50
2019-05-13T08:15:25.692Z,34.50
2019-05-13T08:17:55.527Z,34.40
2019-05-13T08:20:26.831Z,34.50
2019-05-13T08:22:58.540Z,34.70
2019-05-13T08:25:31.605Z,34.70
2019-05-13T08:28:03.494Z,34.80
2019-05-13T08:30:35.250Z,34.80
2019-05-13T08:33:06.672Z,34.80
2019-05-13T08:35:37.833Z,34.80
2019-05-13T08:38:09.186Z,34.70
2019-05-13T08:40:42.417Z,34.70
2019-05-13T08:43:13.709Z,34.70
2019-05-13T08:45:45.726Z,34.70
2019-05-13T08:48:22.161Z,34.60
2019-05-13T08:50:54.021Z,34.60
2019-05-13T08:53:25.271Z,34.50
2019-05-13T08:55:57.260Z,34.50
2019-05-13T08:58:28.903Z,34.40
2019-05-13T09:01:02.293Z,34.40
2019-05-13T09:03:33.960Z,34.40
2019-05-13T09:06:05.685Z,34.40
2019-05-13T09:08:35.787Z,34.40
2019-05-13T09:11:07.652Z,34.40
2019-05-13T09:13:39.344Z,34.40
2019-05-13T09:16:13.146Z,34.30
2019-05-13T09:18:42.593Z,34.10
2019-05-13T09:21:14.417Z,33.90
2019-05-13T09:23:44.505Z,33.70
2019-05-13T09:26:15.794Z,33.40
2019-05-13T09:28:47.579Z,33.20
2019-05-13T09:31:18.004Z,33.10
2019-05-13T09:33:56.608Z,33.00
2019-05-13T09:36:27.712Z,32.80
2019-05-13T09:39:01.857Z,32.80
2019-05-13T09:41:38.423Z,32.80
2019-05-13T09:44:05.490Z,32.80
2019-05-13T09:46:35.727Z,32.90
2019-05-13T09:49:18.614Z,33.00
2019-05-13T09:51:41.714Z,33.00
2019-05-13T09:54:13.757Z,32.80
2019-05-13T09:56:44.637Z,32.60
2019-05-13T09:59:16.349Z,32.20
2019-05-13T10:01:48.085Z,31.70
2019-05-13T10:04:21.981Z,31.30
2019-05-13T10:06:52.401Z,30.90
2019-05-13T10:09:24.018Z,30.50
2019-05-13T10:11:55.427Z,30.20
2019-05-13T10:14:27.203Z,30.10
2019-05-13T10:16:58.747Z,30.00
2019-05-13T10:19:32.238Z,30.00
2019-05-13T10:22:04.112Z,30.00
2019-05-13T10:24:36.007Z,30.00
2019-05-13T10:27:08.155Z,30.10
2019-05-13T10:29:42.191Z,30.10
2019-05-13T10:32:12.479Z,30.20
2019-05-13T10:34:44.759Z,30.20
2019-05-13T10:37:16.528Z,30.30
2019-05-13T10:39:47.458Z,30.30
2019-05-13T10:42:18.764Z,30.30
2019-05-13T10:44:52.317Z,30.20
2019-05-13T10:47:23.018Z,30.00
2019-05-13T10:49:54.507Z,29.90
2019-05-13T10:52:26.055Z,29.70
2019-05-13T10:54:57.808Z,29.50
2019-05-13T10:57:48.019Z,29.30
2019-05-13T11:02:49.851Z,28.90
2019-05-13T11:05:22.822Z,28.70
2019-05-13T11:07:53.134Z,28.60
2019-05-13T11:10:26.576Z,28.50
2019-05-13T11:12:57.802Z,28.40
2019-05-13T11:15:32.846Z,28.30
2019-05-13T11:18:03.054Z,28.20
2019-05-13T11:20:34.168Z,28.10
2019-05-13T11:23:05.001Z,28.10
2019-05-13T11:25:36.335Z,28.10
2019-05-13T11:28:07.339Z,28.10
2019-05-13T11:30:38.553Z,28.10
2019-05-13T11:33:10.416Z,28.10
2019-05-13T11:35:42.028Z,28.10
2019-05-13T11:38:12.879Z,28.10
2019-05-13T11:40:44.854Z,28.10
2019-05-13T11:43:16.609Z,28.10
2019-05-13T11:45:48.356Z,28.10
2019-05-13T11:48:23.169Z,28.10
2019-05-13T11:50:54.172Z,28.00
2019-05-13T11:53:32.819Z,28.10
2019-05-13T11:56:03.233Z,28.10
2019-05-13T11:58:32.604Z,28.10
2019-05-13T12:01:05.156Z,28.10
2019-05-13T12:03:37.217Z,28.00
2019-05-13T12:06:09.190Z,28.00
2019-05-13T12:08:49.826Z,28.00
2019-05-13T12:11:14.354Z,28.00
2019-05-13T12:13:45.880Z,28.00
2019-05-13T12:16:17.779Z,28.00
2019-05-13T12:18:51.203Z,28.00
2019-05-13T12:21:22.078Z,27.90
2019-05-13T12:23:54.383Z,27.90
2019-05-13T12:26:26.131Z,27.90
2019-05-13T12:28:57.891Z,27.90
2019-05-13T12:31:33.385Z,27.90
2019-05-13T12:34:03.635Z,28.00
2019-05-13T12:36:35.850Z,28.10
2019-05-13T12:39:13.799Z,28.20
2019-05-13T12:41:43.033Z,28.30
2019-05-13T12:44:14.898Z,28.20
2019-05-13T12:46:50.108Z,28.10
2019-05-13T12:49:21.469Z,27.90
2019-05-13T12:51:57.068Z,27.80
2019-05-13T12:54:24.811Z,27.80
2019-05-13T12:56:56.681Z,27.80
2019-05-13T12:59:31.554Z,27.70
2019-05-13T13:02:03.167Z,27.70
2019-05-13T13:04:34.572Z,27.70
2019-05-13T13:07:06.177Z,27.60
2019-05-13T13:09:37.925Z,27.60
2019-05-13T13:12:09.678Z,27.50
2019-05-13T13:14:44.300Z,27.50
2019-05-13T13:17:13.909Z,27.50
2019-05-13T13:19:45.365Z,27.50
2019-05-13T13:22:17.017Z,27.50
2019-05-13T13:24:55.758Z,27.50
2019-05-13T13:27:46.470Z,27.50
2019-05-13T13:30:02.723Z,27.40
2019-05-13T13:32:27.005Z,27.40
2019-05-13T13:34:58.698Z,27.30
2019-05-13T13:37:33.683Z,27.30
2019-05-13T13:40:03.576Z,27.30
2019-05-13T13:42:35.398Z,27.30
2019-05-13T13:45:08.503Z,27.40
2019-05-13T13:47:44.982Z,27.50
2019-05-13T13:50:14.369Z,27.60
2019-05-13T13:52:46.117Z,27.50
2019-05-13T13:55:18.190Z,27.60
2019-05-13T13:57:51.296Z,27.50
2019-05-13T14:00:39.319Z,27.40
2019-05-13T14:02:55.735Z,27.30
2019-05-13T14:05:27.383Z,27.30
2019-05-13T14:08:01.528Z,27.20
2019-05-13T14:10:32.425Z,27.20
2019-05-13T14:13:04.853Z,27.20
2019-05-13T14:15:36.637Z,27.10
2019-05-13T14:18:08.320Z,27.10
2019-05-13T14:20:42.711Z,27.20
2019-05-13T14:23:12.770Z,27.30
2019-05-13T14:25:44.515Z,27.40
2019-05-13T14:28:17.637Z,27.60
2019-05-13T14:30:51.446Z,27.70
2019-05-13T14:33:22.592Z,27.80
2019-05-13T14:35:54.345Z,27.80
2019-05-13T14:38:26.115Z,27.90
2019-05-13T14:40:58.459Z,27.90
2019-05-13T14:43:31.606Z,27.90
2019-05-13T14:46:02.235Z,27.90
2019-05-13T14:48:34.459Z,28.00
2019-05-13T14:51:06.534Z,28.00
2019-05-13T14:53:37.195Z,28.00
2019-05-13T14:56:09.064Z,28.10
2019-05-13T14:58:41.812Z,28.00
2019-05-13T15:01:18.764Z,27.90
2019-05-13T15:03:46.533Z,27.80
2019-05-13T15:06:18.320Z,27.70
2019-05-13T15:08:52.339Z,27.60
2019-05-13T15:11:23.269Z,27.50
2019-05-13T15:13:55.027Z,27.40
2019-05-13T15:16:26.445Z,27.40
2019-05-13T15:18:58.228Z,27.30
2019-05-13T15:21:31.887Z,27.20
2019-05-13T15:24:02.433Z,27.10
2019-05-13T15:26:34.230Z,27.00
2019-05-13T15:29:06.188Z,27.00
2019-05-13T15:31:37.953Z,27.00
2019-05-13T15:34:09.702Z,26.90
2019-05-13T15:36:41.894Z,26.80
2019-05-13T15:39:14.162Z,26.70
2019-05-13T15:41:54.666Z,26.70
2019-05-13T15:44:26.144Z,26.70
2019-05-13T15:46:59.312Z,26.60
2019-05-13T15:49:32.356Z,26.60
2019-05-13T15:52:03.198Z,26.50
2019-05-13T15:54:34.829Z,26.50
2019-05-13T15:57:06.287Z,26.50
2019-05-13T15:59:38.157Z,26.40
2019-05-13T16:02:11.533Z,26.40
2019-05-13T16:04:52.645Z,26.30
2019-05-13T16:07:15.275Z,26.30
2019-05-13T16:09:46.741Z,26.20
2019-05-13T16:12:18.382Z,26.20
2019-05-13T16:14:49.763Z,26.20
2019-05-13T16:17:30.573Z,26.10
2019-05-13T16:19:53.783Z,26.10
2019-05-13T16:22:25.523Z,26.10
2019-05-13T16:24:57.231Z,26.00
2019-05-13T16:27:28.481Z,26.00
2019-05-13T16:30:02.243Z,26.00
2019-05-13T16:32:32.768Z,26.00
2019-05-13T16:35:04.635Z,26.00
2019-05-13T16:37:35.842Z,25.90
2019-05-13T16:40:11.636Z,25.90
2019-05-13T16:42:42.218Z,25.90
2019-05-13T16:45:14.738Z,25.80
2019-05-13T16:47:56.622Z,25.80
2019-05-13T16:50:19.378Z,25.80
2019-05-13T16:52:51.250Z,25.80
2019-05-13T16:55:22.689Z,25.80
2019-05-13T16:57:54.460Z,25.70
2019-05-13T17:00:26.515Z,25.70
2019-05-13T17:02:57.738Z,25.70
2019-05-13T17:05:29.324Z,25.70
2019-05-13T17:08:02.097Z,25.70
2019-05-13T17:10:33.450Z,25.70
2019-05-13T17:13:05.303Z,25.70
2019-05-13T17:15:36.535Z,25.70
2019-05-13T17:18:11.981Z,25.70
2019-05-13T17:20:41.457Z,25.70
2019-05-13T17:23:13.262Z,25.70
2019-05-13T17:25:44.876Z,25.70
2019-05-13T17:28:16.785Z,25.60
2019-05-13T17:30:48.510Z,25.60
2019-05-13T17:33:22.836Z,25.50
2019-05-13T17:35:52.465Z,25.50
2019-05-13T17:38:23.815Z,25.50
2019-05-13T17:40:55.482Z,25.50
2019-05-13T17:43:27.031Z,25.50
2019-05-13T17:45:58.494Z,25.40
2019-05-13T17:48:32.830Z,25.40
2019-05-13T17:51:02.666Z,25.40
2019-05-13T17:53:34.134Z,25.30
2019-05-13T17:56:05.289Z,25.30
2019-05-13T17:58:36.752Z,25.30
2019-05-13T18:01:08.337Z,25.30
2019-05-13T18:03:41.202Z,25.30
2019-05-13T18:06:12.149Z,25.30
2019-05-13T18:08:43.003Z,25.30
2019-05-13T18:11:13.867Z,25.30
2019-05-13T18:13:44.725Z,25.40
2019-05-13T18:16:15.684Z,25.40
2019-05-13T18:18:47.716Z,25.40
2019-05-13T18:21:18.919Z,25.30
2019-05-13T18:23:51.957Z,25.30
2019-05-13T18:26:21.934Z,25.20
2019-05-13T18:28:52.847Z,25.20
2019-05-13T18:31:24.932Z,25.20
2019-05-13T18:33:54.805Z,25.10
2019-05-13T18:36:26.358Z,25.10
2019-05-13T18:38:58.070Z,25.10
2019-05-13T18:41:31.580Z,25.10
2019-05-13T18:44:02.226Z,25.10
2019-05-13T18:46:33.095Z,25.00
2019-05-13T18:49:04.703Z,25.10
2019-05-13T18:51:36.158Z,25.10
2019-05-13T18:54:08.211Z,25.10
2019-05-13T18:56:41.588Z,25.00
2019-05-13T18:59:12.951Z,25.10
2019-05-13T19:01:44.769Z,25.00
2019-05-13T19:04:15.920Z,25.00
2019-05-13T19:06:47.216Z,25.10
2019-05-13T19:09:18.420Z,25.10
2019-05-13T19:11:51.489Z,25.20
2019-05-13T19:14:22.552Z,25.20
2019-05-13T19:16:53.393Z,25.20
2019-05-13T19:19:25.191Z,25.20
2019-05-13T19:21:56.267Z,25.20
2019-05-13T19:24:31.090Z,25.20
2019-05-13T19:27:01.948Z,25.30
2019-05-13T19:29:33.868Z,25.40
2019-05-13T19:32:05.316Z,25.40
2019-05-13T19:34:37.071Z,25.40
2019-05-13T19:37:08.514Z,25.50
2019-05-13T19:39:39.385Z,25.50
2019-05-13T19:42:11.580Z,25.50
2019-05-13T19:44:43.074Z,25.50
2019-05-13T19:47:14.831Z,25.50
2019-05-13T19:49:46.921Z,25.50
2019-05-13T19:52:18.477Z,25.50
2019-05-13T19:54:51.374Z,25.40
2019-05-13T19:57:22.716Z,25.40
2019-05-13T19:59:54.111Z,25.50
2019-05-13T20:02:25.474Z,25.40
2019-05-13T20:04:56.732Z,25.40
2019-05-13T20:07:28.313Z,25.40
2019-05-13T20:10:02.607Z,25.40
2019-05-13T20:12:32.265Z,25.30
2019-05-13T20:15:03.312Z,25.30
2019-05-13T20:17:34.741Z,25.30
2019-05-13T20:20:07.735Z,25.30
2019-05-13T20:22:41.904Z,25.30
2019-05-13T20:25:13.177Z,25.40
2019-05-13T20:27:44.989Z,25.40
2019-05-13T20:30:16.588Z,25.40
2019-05-13T20:32:48.456Z,25.40
2019-05-13T20:35:21.768Z,25.30
2019-05-13T20:37:52.900Z,25.20
2019-05-13T20:40:24.650Z,25.20
2019-05-13T20:42:55.693Z,25.20
2019-05-13T20:45:27.555Z,25.20
2019-05-13T20:48:01.314Z,25.20
2019-05-13T20:50:31.732Z,25.20
2019-05-13T20:53:02.871Z,25.20
2019-05-13T20:55:33.943Z,25.20
2019-05-13T20:58:05.754Z,25.20
2019-05-13T21:00:37.148Z,25.20
2019-05-13T21:03:08.869Z,25.20
2019-05-13T21:05:41.640Z,25.20
2019-05-13T21:08:12.707Z,25.20
2019-05-13T21:10:43.988Z,25.20
2019-05-13T21:13:15.579Z,25.20
2019-05-13T21:15:47.346Z,25.10
2019-05-13T21:18:19.214Z,25.20
2019-05-13T21:20:50.267Z,25.20
2019-05-13T21:23:21.751Z,25.10
2019-05-13T21:25:53.485Z,25.10
2019-05-13T21:28:24.906Z,25.00
2019-05-13T21:30:56.292Z,25.10
2019-05-13T21:33:27.232Z,25.00
2019-05-13T21:35:58.527Z,25.00
2019-05-13T21:38:32.227Z,25.00
2019-05-13T21:41:02.595Z,25.00
2019-05-13T21:43:34.148Z,25.00
2019-05-13T21:46:05.221Z,25.00
2019-05-13T21:48:36.171Z,24.90
2019-05-13T21:51:07.984Z,24.90
2019-05-13T21:53:41.256Z,24.90
2019-05-13T21:56:12.407Z,24.90
2019-05-13T21:58:43.333Z,24.90
2019-05-13T22:01:14.685Z,24.90
2019-05-13T22:03:46.012Z,25.00
2019-05-13T22:06:17.615Z,25.00
2019-05-13T22:08:51.628Z,25.00
2019-05-13T22:11:22.465Z,25.00
2019-05-13T22:13:54.221Z,24.90
2019-05-13T22:16:25.684Z,24.90
2019-05-13T22:18:57.133Z,24.90
2019-05-13T22:21:28.438Z,24.90
2019-05-13T22:24:02.114Z,24.90
2019-05-13T22:26:33.312Z,24.80
2019-05-13T22:29:04.971Z,24.80
2019-05-13T22:31:36.739Z,24.70
2019-05-13T22:34:08.308Z,24.70
2019-05-13T22:36:39.604Z,24.60
2019-05-13T22:39:11.543Z,24.60
2019-05-13T22:41:43.466Z,24.50
2019-05-13T22:44:15.239Z,24.50
2019-05-13T22:46:46.494Z,24.50
2019-05-13T22:49:18.125Z,24.50
2019-05-13T22:51:51.485Z,24.50
2019-05-13T22:54:22.344Z,24.50
2019-05-13T22:56:54.009Z,24.50
2019-05-13T22:59:25.740Z,24.60
2019-05-13T23:01:57.646Z,24.60
2019-05-13T23:04:28.649Z,24.60
2019-05-13T23:07:01.276Z,24.70
2019-05-13T23:09:32.789Z,24.80
2019-05-13T23:12:04.590Z,24.90
2019-05-13T23:14:35.908Z,24.90
2019-05-13T23:17:07.484Z,25.00
2019-05-13T23:19:41.328Z,25.00
2019-05-13T23:22:12.096Z,25.10
2019-05-13T23:24:43.618Z,25.20
2019-05-13T23:27:15.736Z,25.30
2019-05-13T23:29:46.302Z,25.50
2019-05-13T23:32:17.944Z,25.80
2019-05-13T23:34:51.094Z,26.10
2019-05-13T23:37:21.784Z,26.40
2019-05-13T23:39:53.190Z,26.70
2019-05-13T23:42:24.443Z,27.10
2019-05-13T23:44:55.790Z,27.40
2019-05-13T23:47:27.368Z,27.70
2019-05-13T23:49:59.232Z,27.80
2019-05-13T23:52:31.209Z,27.80
2019-05-13T23:55:05.806Z,27.70
2019-05-13T23:57:35.489Z,27.60
